Time,TemperatureF,DewpointF,PressureIn,WindDirection,WindDirectionDegrees,WindSpeedMPH,WindSpeedGustMPH,Humidity,HourlyPrecipIn,Conditions,Clouds,dailyrainin,SoftwareType,DateUTC
2013-03-10 00:00:00,37.0,34.1,29.83,SE,135,9.3,9.3,89,0.02,,,0.37,VWS V14.01,2013-03-10 06:00:00,
2013-03-10 00:05:00,37.2,34.3,29.83,SE,135,9.1,9.1,89,0.02,,,0.00,VWS V14.01,2013-03-10 06:05:00,
2013-03-10 00:10:00,37.7,34.8,29.83,SE,135,9.3,9.3,89,0.02,,,0.00,VWS V14.01,2013-03-10 06:10:00,
2013-03-10 00:15:00,37.7,34.8,29.83,SE,135,9.8,9.8,89,0.02,,,0.00,VWS V14.01,2013-03-10 06:15:00,
2013-03-10 00:20:00,37.7,34.8,29.82,SE,135,9.8,9.8,89,0.04,,,0.02,VWS V14.01,2013-03-10 06:20:00,
2013-03-10 00:25:00,37.7,34.8,29.81,SE,135,10.2,10.2,89,0.04,,,0.02,VWS V14.01,2013-03-10 06:25:00,
2013-03-10 00:30:00,37.7,34.8,29.81,SE,135,7.6,7.6,89,0.06,,,0.04,VWS V14.01,2013-03-10 06:30:00,
2013-03-10 00:35:00,37.7,34.8,29.81,SSE,158,9.8,9.8,89,0.06,,,0.04,VWS V14.01,2013-03-10 06:35:00,
2013-03-10 00:40:00,37.9,35.0,29.81,SE,135,6.0,6.0,89,0.06,,,0.04,VWS V14.01,2013-03-10 06:40:00,
2013-03-10 00:45:00,38.4,35.5,29.81,SSE,158,6.9,6.9,89,0.04,,,0.04,VWS V14.01,2013-03-10 06:45:00,
2013-03-10 00:50:00,38.4,35.5,29.81,SE,135,9.1,9.1,89,0.04,,,0.04,VWS V14.01,2013-03-10 06:50:00,
2013-03-10 00:55:00,38.4,35.5,29.81,SSE,158,8.2,8.2,89,0.04,,,0.04,VWS V14.01,2013-03-10 06:55:00,
2013-03-10 00:59:00,39.0,36.3,29.79,SE,135,3.3,3.3,90,0.06,,,0.06,VWS V14.01,2013-03-10 06:59:00,
2013-03-10 01:00:00,38.8,35.8,29.81,SE,135,7.8,7.8,89,0.04,,,0.04,VWS V14.01,2013-03-10 07:00:00,
2013-03-10 01:05:00,39.0,36.3,29.82,SSE,158,8.9,8.9,90,0.04,,,0.04,VWS V14.01,2013-03-10 07:05:00,
2013-03-10 01:10:00,39.3,36.6,29.82,SE,135,8.0,8.0,90,0.04,,,0.04,VWS V14.01,2013-03-10 07:10:00,
2013-03-10 01:15:00,39.5,36.5,29.82,South,180,1.1,1.1,89,0.04,,,0.04,VWS V14.01,2013-03-10 07:15:00,
2013-03-10 01:20:00,39.7,36.7,29.81,ESE,112,2.2,2.2,89,0.04,,,0.06,VWS V14.01,2013-03-10 07:20:00,
2013-03-10 01:25:00,39.9,36.9,29.81,SSE,158,4.6,4.6,89,0.04,,,0.06,VWS V14.01,2013-03-10 07:25:00,
2013-03-10 01:30:00,39.9,36.9,29.81,SE,135,4.9,4.9,89,0.02,,,0.06,VWS V14.01,2013-03-10 07:30:00,
2013-03-10 01:35:00,39.5,36.5,29.80,SE,135,5.5,5.5,89,0.02,,,0.06,VWS V14.01,2013-03-10 07:35:00,
2013-03-10 01:40:00,39.0,36.0,29.79,SE,135,1.7,1.7,89,0.02,,,0.06,VWS V14.01,2013-03-10 07:40:00,
2013-03-10 01:45:00,39.0,36.3,29.79,SE,135,0.0,0.0,90,0.02,,,0.06,VWS V14.01,2013-03-10 07:45:00,
2013-03-10 01:50:00,39.0,36.3,29.79,SE,135,0.0,0.0,90,0.02,,,0.06,VWS V14.01,2013-03-10 07:50:00,
2013-03-10 01:55:00,39.2,36.5,29.79,SE,135,3.8,3.8,90,0.02,,,0.06,VWS V14.01,2013-03-10 07:55:00,
2013-03-10 03:01:00,39.0,36.3,29.79,SE,135,3.3,3.3,90,0.06,,,0.06,VWS V14.01,2013-03-10 08:01:00,
2013-03-10 03:05:00,39.3,36.6,29.79,SE,135,6.2,6.2,90,0.02,,,0.06,VWS V14.01,2013-03-10 08:05:00,
2013-03-10 03:10:00,39.3,36.6,29.79,South,180,0.0,0.0,90,0.04,,,0.08,VWS V14.01,2013-03-10 08:10:00,
2013-03-10 03:15:00,39.3,36.6,29.79,South,180,0.0,0.0,90,0.04,,,0.08,VWS V14.01,2013-03-10 08:15:00,
2013-03-10 03:20:00,39.5,36.8,29.79,SE,135,1.3,1.3,90,0.04,,,0.10,VWS V14.01,2013-03-10 08:20:00,
2013-03-10 03:25:00,39.7,37.0,29.79,SE,135,0.0,0.0,90,0.04,,,0.10,VWS V14.01,2013-03-10 08:25:00,
2013-03-10 03:30:00,39.9,37.2,29.80,SE,135,0.0,0.0,90,0.06,,,0.12,VWS V14.01,2013-03-10 08:30:00,
2013-03-10 03:35:00,39.9,37.2,29.79,SE,135,0.0,0.0,90,0.06,,,0.12,VWS V14.01,2013-03-10 08:35:00,
2013-03-10 03:40:00,39.3,36.6,29.79,SE,135,0.0,0.0,90,0.06,,,0.12,VWS V14.01,2013-03-10 08:40:00,
2013-03-10 03:45:00,39.0,36.3,29.79,SE,135,0.0,0.0,90,0.08,,,0.14,VWS V14.01,2013-03-10 08:45:00,
2013-03-10 03:50:00,39.0,36.3,29.79,SE,135,0.0,0.0,90,0.08,,,0.14,VWS V14.01,2013-03-10 08:50:00,
2013-03-10 03:55:00,39.2,36.5,29.79,SE,135,0.0,0.0,90,0.08,,,0.14,VWS V14.01,2013-03-10 08:55:00,
2013-03-10 04:00:00,39.3,36.6,29.79,SE,135,1.5,1.5,90,0.08,,,0.14,VWS V14.01,2013-03-10 09:00:00,
2013-03-10 04:05:00,39.0,36.3,29.79,SE,135,0.0,0.0,90,0.08,,,0.14,VWS V14.01,2013-03-10 09:05:00,
2013-03-10 04:10:00,38.8,35.8,29.79,ESE,112,5.1,5.1,89,0.06,,,0.14,VWS V14.01,2013-03-10 09:10:00,
2013-03-10 04:15:00,38.8,35.8,29.78,ESE,112,2.2,2.2,89,0.06,,,0.14,VWS V14.01,2013-03-10 09:15:00,
2013-03-10 04:20:00,38.8,36.1,29.78,ESE,112,3.5,3.5,90,0.04,,,0.14,VWS V14.01,2013-03-10 09:20:00,
2013-03-10 04:25:00,39.0,36.3,29.79,SE,135,2.6,2.6,90,0.04,,,0.14,VWS V14.01,2013-03-10 09:25:00,
2013-03-10 04:30:00,39.0,36.3,29.78,SE,135,5.3,5.3,90,0.02,,,0.14,VWS V14.01,2013-03-10 09:30:00,
2013-03-10 04:35:00,39.3,36.6,29.79,SE,135,1.3,1.3,90,0.02,,,0.14,VWS V14.01,2013-03-10 09:35:00,
2013-03-10 04:40:00,39.3,36.6,29.79,SE,135,0.0,0.0,90,0.02,,,0.14,VWS V14.01,2013-03-10 09:40:00,
2013-03-10 04:45:00,40.2,37.5,29.79,SE,135,0.0,0.0,90,0.00,,,0.14,VWS V14.01,2013-03-10 09:45:00,
2013-03-10 04:50:00,40.8,38.1,29.79,SE,135,0.0,0.0,90,0.00,,,0.14,VWS V14.01,2013-03-10 09:50:00,
2013-03-10 04:55:00,40.8,38.1,29.79,SE,135,0.0,0.0,90,0.00,,,0.14,VWS V14.01,2013-03-10 09:55:00,
2013-03-10 05:00:00,40.8,38.1,29.79,SE,135,0.0,0.0,90,0.00,,,0.00,VWS V14.01,2013-03-10 10:00:00,
2013-03-10 05:05:00,41.3,38.6,29.79,SE,135,6.4,6.4,90,0.02,,,0.16,VWS V14.01,2013-03-10 10:05:00,
2013-03-10 05:10:00,41.7,39.0,29.78,SE,135,1.7,6.4,90,0.02,,,0.00,VWS V14.01,2013-03-10 10:10:00,
2013-03-10 05:15:00,40.6,37.9,29.78,SE,135,1.7,1.7,90,0.02,,,0.16,VWS V14.01,2013-03-10 10:15:00,
2013-03-10 05:20:00,40.2,37.5,29.77,ESE,112,4.0,4.0,90,0.02,,,0.16,VWS V14.01,2013-03-10 10:20:00,
2013-03-10 05:25:00,40.2,37.5,29.76,ESE,112,10.2,10.2,90,0.02,,,0.16,VWS V14.01,2013-03-10 10:25:00,
2013-03-10 05:30:00,40.2,37.5,29.75,ESE,112,10.0,10.0,90,0.02,,,0.16,VWS V14.01,2013-03-10 10:30:00,
2013-03-10 05:35:00,40.1,37.4,29.73,ESE,112,10.0,10.0,90,0.02,,,0.16,VWS V14.01,2013-03-10 10:35:00,
2013-03-10 05:40:00,40.2,37.5,29.69,East,90,17.4,17.4,90,0.02,,,0.16,VWS V14.01,2013-03-10 10:40:00,
2013-03-10 05:45:00,39.9,37.2,29.69,ESE,112,15.2,15.2,90,0.02,,,0.16,VWS V14.01,2013-03-10 10:45:00,
2013-03-10 05:50:00,39.3,36.6,29.69,ESE,112,13.8,13.8,90,0.02,,,0.16,VWS V14.01,2013-03-10 10:50:00,
2013-03-10 05:55:00,39.5,36.8,29.71,ESE,112,11.8,11.8,90,0.02,,,0.16,VWS V14.01,2013-03-10 10:55:00,
2013-03-10 06:00:00,39.3,36.6,29.72,SE,135,6.4,6.4,90,0.02,,,0.16,VWS V14.01,2013-03-10 11:00:00,
2013-03-10 06:05:00,39.5,36.8,29.72,ESE,112,9.8,9.8,90,0.00,,,0.16,VWS V14.01,2013-03-10 11:05:00,
2013-03-10 06:10:00,39.9,37.2,29.75,SSE,158,4.0,4.0,90,0.00,,,0.16,VWS V14.01,2013-03-10 11:10:00,
2013-03-10 06:15:00,39.9,37.2,29.78,SSW,202,8.9,8.9,90,0.00,,,0.16,VWS V14.01,2013-03-10 11:15:00,
2013-03-10 06:20:00,40.1,37.4,29.78,SSW,202,6.2,6.2,90,0.00,,,0.16,VWS V14.01,2013-03-10 11:20:00,
2013-03-10 06:25:00,40.1,37.4,29.79,SSW,202,8.0,8.0,90,0.00,,,0.16,VWS V14.01,2013-03-10 11:25:00,
2013-03-10 06:30:00,39.9,37.2,29.79,SSW,202,6.2,6.2,90,0.00,,,0.16,VWS V14.01,2013-03-10 11:30:00,
2013-03-10 06:35:00,39.9,37.2,29.80,SSW,202,8.2,8.2,90,0.00,,,0.16,VWS V14.01,2013-03-10 11:35:00,
2013-03-10 06:40:00,39.5,36.8,29.79,SSE,158,0.0,0.0,90,0.00,,,0.16,VWS V14.01,2013-03-10 11:40:00,
2013-03-10 06:45:00,39.2,36.5,29.79,SSE,158,0.0,0.0,90,0.00,,,0.16,VWS V14.01,2013-03-10 11:45:00,
2013-03-10 06:50:00,39.0,36.3,29.78,SSE,158,4.6,4.6,90,0.00,,,0.16,VWS V14.01,2013-03-10 11:50:00,
2013-03-10 06:55:00,39.0,36.3,29.77,SE,135,4.2,4.2,90,0.00,,,0.16,VWS V14.01,2013-03-10 11:55:00,
2013-03-10 07:00:00,38.4,35.7,29.77,ESE,112,0.0,0.0,90,0.00,,,0.16,VWS V14.01,2013-03-10 12:00:00,
2013-03-10 07:05:00,38.3,35.6,29.77,ESE,112,0.0,0.0,90,0.00,,,0.16,VWS V14.01,2013-03-10 12:05:00,
2013-03-10 07:10:00,38.4,35.7,29.77,ESE,112,2.0,2.0,90,0.00,,,0.16,VWS V14.01,2013-03-10 12:10:00,
2013-03-10 07:15:00,38.8,36.1,29.76,ESE,112,3.3,3.3,90,0.00,,,0.16,VWS V14.01,2013-03-10 12:15:00,
2013-03-10 07:20:00,38.4,35.7,29.77,ESE,112,2.0,2.0,90,0.00,,,0.16,VWS V14.01,2013-03-10 12:20:00,
2013-03-10 07:25:00,38.4,35.7,29.77,ESE,112,1.5,1.5,90,0.00,,,0.16,VWS V14.01,2013-03-10 12:25:00,
2013-03-10 07:30:00,38.4,35.7,29.79,ESE,112,1.3,1.3,90,0.00,,,0.16,VWS V14.01,2013-03-10 12:30:00,
2013-03-10 07:35:00,38.4,35.7,29.80,ESE,112,0.0,0.0,90,0.00,,,0.16,VWS V14.01,2013-03-10 12:35:00,
2013-03-10 07:40:00,38.8,36.4,29.81,ESE,112,0.0,0.0,91,0.00,,,0.16,VWS V14.01,2013-03-10 12:40:00,
2013-03-10 07:45:00,38.3,35.6,29.81,ESE,112,0.0,0.0,90,0.00,,,0.16,VWS V14.01,2013-03-10 12:45:00,
2013-03-10 07:50:00,38.4,35.7,29.82,ESE,112,0.0,0.0,90,0.00,,,0.16,VWS V14.01,2013-03-10 12:50:00,
2013-03-10 07:55:00,38.4,35.7,29.81,ESE,112,0.0,0.0,90,0.00,,,0.16,VWS V14.01,2013-03-10 12:55:00,
2013-03-10 08:00:00,38.3,35.9,29.81,ESE,112,0.0,0.0,91,0.00,,,0.16,VWS V14.01,2013-03-10 13:00:00,
2013-03-10 08:05:00,38.8,36.4,29.81,ESE,112,0.0,0.0,91,0.00,,,0.16,VWS V14.01,2013-03-10 13:05:00,
2013-03-10 08:10:00,39.0,36.6,29.81,ESE,112,0.0,0.0,91,0.00,,,0.16,VWS V14.01,2013-03-10 13:10:00,
2013-03-10 08:15:00,39.0,36.6,29.81,ESE,112,0.0,0.0,91,0.00,,,0.16,VWS V14.01,2013-03-10 13:15:00,
2013-03-10 08:20:00,38.8,36.4,29.81,ESE,112,0.0,0.0,91,0.00,,,0.16,VWS V14.01,2013-03-10 13:20:00,
2013-03-10 08:25:00,38.8,36.4,29.81,ESE,112,0.0,0.0,91,0.00,,,0.16,VWS V14.01,2013-03-10 13:25:00,
2013-03-10 08:30:00,39.0,36.6,29.82,East,90,1.3,1.3,91,0.00,,,0.16,VWS V14.01,2013-03-10 13:30:00,
2013-03-10 08:35:00,39.0,36.6,29.82,East,90,1.7,1.7,91,0.00,,,0.16,VWS V14.01,2013-03-10 13:35:00,
2013-03-10 08:40:00,38.6,35.9,29.82,East,90,0.0,0.0,90,0.00,,,0.16,VWS V14.01,2013-03-10 13:40:00,
2013-03-10 08:45:00,38.4,35.7,29.82,East,90,0.0,0.0,90,0.00,,,0.16,VWS V14.01,2013-03-10 13:45:00,
2013-03-10 08:50:00,38.4,36.0,29.81,East,90,4.0,4.0,91,0.00,,,0.16,VWS V14.01,2013-03-10 13:50:00,
2013-03-10 08:55:00,38.4,36.0,29.81,East,90,2.6,2.6,91,0.00,,,0.16,VWS V14.01,2013-03-10 13:55:00,
2013-03-10 09:00:00,38.1,35.7,29.81,East,90,2.6,2.6,91,0.00,,,0.16,VWS V14.01,2013-03-10 14:00:00,
2013-03-10 09:05:00,38.1,35.7,29.80,East,90,1.3,1.3,91,0.00,,,0.16,VWS V14.01,2013-03-10 14:05:00,
2013-03-10 09:10:00,38.1,35.7,29.81,NE,45,1.1,1.1,91,0.00,,,0.16,VWS V14.01,2013-03-10 14:10:00,
2013-03-10 09:15:00,37.4,35.0,29.81,NNE,22,0.0,0.0,91,0.00,,,0.16,VWS V14.01,2013-03-10 14:15:00,
2013-03-10 09:20:00,37.9,35.5,29.81,NNE,22,0.0,0.0,91,0.00,,,0.16,VWS V14.01,2013-03-10 14:20:00,
2013-03-10 09:25:00,38.1,35.7,29.81,NNE,22,2.6,2.6,91,0.00,,,0.16,VWS V14.01,2013-03-10 14:25:00,
2013-03-10 09:30:00,38.1,35.7,29.81,NE,45,1.3,1.3,91,0.00,,,0.16,VWS V14.01,2013-03-10 14:30:00,
2013-03-10 09:35:00,38.4,36.0,29.81,NE,45,0.0,0.0,91,0.00,,,0.16,VWS V14.01,2013-03-10 14:35:00,
2013-03-10 09:40:00,38.4,36.0,29.81,NE,45,0.8,0.8,91,0.00,,,0.16,VWS V14.01,2013-03-10 14:40:00,
2013-03-10 09:45:00,38.4,36.0,29.81,NNE,22,4.0,4.0,91,0.00,,,0.16,VWS V14.01,2013-03-10 14:45:00,
2013-03-10 09:50:00,38.4,36.0,29.82,NNE,22,3.1,3.1,91,0.00,,,0.16,VWS V14.01,2013-03-10 14:50:00,
2013-03-10 09:55:00,38.8,36.4,29.82,NE,45,1.7,1.7,91,0.00,,,0.16,VWS V14.01,2013-03-10 14:55:00,
2013-03-10 10:00:00,38.8,36.4,29.82,NE,45,2.4,2.4,91,0.00,,,0.16,VWS V14.01,2013-03-10 15:00:00,
2013-03-10 10:05:00,38.8,36.4,29.83,ENE,68,0.0,0.0,91,0.00,,,0.16,VWS V14.01,2013-03-10 15:05:00,
2013-03-10 10:10:00,38.8,36.4,29.84,ENE,68,0.0,0.0,91,0.00,,,0.16,VWS V14.01,2013-03-10 15:10:00,
2013-03-10 10:15:00,38.8,36.4,29.83,ENE,68,3.1,3.1,91,0.00,,,0.16,VWS V14.01,2013-03-10 15:15:00,
2013-03-10 10:20:00,38.8,36.4,29.82,ENE,68,2.4,2.4,91,0.00,,,0.16,VWS V14.01,2013-03-10 15:20:00,
2013-03-10 10:25:00,38.8,36.4,29.82,ENE,68,3.5,3.5,91,0.00,,,0.16,VWS V14.01,2013-03-10 15:25:00,
2013-03-10 10:30:00,38.8,36.4,29.82,ENE,68,4.2,4.2,91,0.00,,,0.16,VWS V14.01,2013-03-10 15:30:00,
2013-03-10 10:35:00,38.8,36.4,29.82,NE,45,2.2,2.2,91,0.00,,,0.16,VWS V14.01,2013-03-10 15:35:00,
2013-03-10 10:40:00,38.8,36.4,29.82,ENE,68,4.6,4.6,91,0.00,,,0.16,VWS V14.01,2013-03-10 15:40:00,
2013-03-10 10:45:00,39.0,36.6,29.82,ENE,68,4.2,4.2,91,0.00,,,0.16,VWS V14.01,2013-03-10 15:45:00,
2013-03-10 10:50:00,39.0,36.6,29.82,NE,45,1.1,1.1,91,0.00,,,0.16,VWS V14.01,2013-03-10 15:50:00,
2013-03-10 10:55:00,39.0,36.6,29.82,NE,45,3.8,3.8,91,0.00,,,0.16,VWS V14.01,2013-03-10 15:55:00,
2013-03-10 11:00:00,39.3,36.9,29.81,ENE,68,3.3,3.3,91,0.00,,,0.16,VWS V14.01,2013-03-10 16:00:00,
2013-03-10 11:05:00,39.3,36.9,29.81,ENE,68,6.9,6.9,91,0.00,,,0.16,VWS V14.01,2013-03-10 16:05:00,
2013-03-10 11:10:00,39.3,36.9,29.80,ENE,68,3.1,3.1,91,0.00,,,0.16,VWS V14.01,2013-03-10 16:10:00,
2013-03-10 11:15:00,39.3,36.9,29.79,NE,45,5.3,5.3,91,0.00,,,0.16,VWS V14.01,2013-03-10 16:15:00,
2013-03-10 11:20:00,39.3,36.9,29.78,ENE,68,6.0,6.0,91,0.00,,,0.16,VWS V14.01,2013-03-10 16:20:00,
2013-03-10 11:25:00,39.3,36.9,29.77,NE,45,4.9,4.9,91,0.00,,,0.16,VWS V14.01,2013-03-10 16:25:00,
2013-03-10 11:30:00,39.3,36.9,29.78,NE,45,1.7,1.7,91,0.00,,,0.16,VWS V14.01,2013-03-10 16:30:00,
2013-03-10 11:35:00,39.3,36.9,29.79,ENE,68,3.3,3.3,91,0.00,,,0.16,VWS V14.01,2013-03-10 16:35:00,
2013-03-10 11:40:00,39.3,36.9,29.80,NE,45,0.0,0.0,91,0.00,,,0.16,VWS V14.01,2013-03-10 16:40:00,
2013-03-10 11:45:00,39.3,36.9,29.80,East,90,2.6,2.6,91,0.00,,,0.16,VWS V14.01,2013-03-10 16:45:00,
2013-03-10 11:50:00,39.3,36.9,29.80,ENE,68,4.9,4.9,91,0.00,,,0.16,VWS V14.01,2013-03-10 16:50:00,
2013-03-10 11:55:00,39.0,36.6,29.80,ENE,68,3.3,3.3,91,0.00,,,0.16,VWS V14.01,2013-03-10 16:55:00,
2013-03-10 12:00:00,39.2,36.8,29.80,ENE,68,1.3,1.3,91,0.00,,,0.16,VWS V14.01,2013-03-10 17:00:00,
2013-03-10 12:05:00,39.2,36.8,29.80,NE,45,2.6,2.6,91,0.00,,,0.16,VWS V14.01,2013-03-10 17:05:00,
2013-03-10 12:10:00,39.0,36.6,29.80,NE,45,0.6,0.6,91,0.00,,,0.16,VWS V14.01,2013-03-10 17:10:00,
2013-03-10 12:15:00,39.0,36.6,29.81,NE,45,0.0,0.0,91,0.00,,,0.16,VWS V14.01,2013-03-10 17:15:00,
2013-03-10 12:20:00,39.0,36.6,29.80,NE,45,0.4,0.4,91,0.00,,,0.16,VWS V14.01,2013-03-10 17:20:00,
2013-03-10 12:25:00,39.5,37.1,29.80,NE,45,2.6,2.6,91,0.00,,,0.16,VWS V14.01,2013-03-10 17:25:00,
2013-03-10 12:30:00,39.3,36.9,29.79,North,0,2.9,2.9,91,0.02,,,0.19,VWS V14.01,2013-03-10 17:30:00,
2013-03-10 12:35:00,39.0,36.6,29.79,NNE,22,5.8,5.8,91,0.02,,,0.19,VWS V14.01,2013-03-10 17:35:00,
2013-03-10 12:40:00,39.7,37.3,29.79,NE,45,5.3,5.3,91,0.02,,,0.19,VWS V14.01,2013-03-10 17:40:00,
2013-03-10 12:45:00,40.2,37.8,29.79,East,90,6.9,6.9,91,0.04,,,0.20,VWS V14.01,2013-03-10 17:45:00,
2013-03-10 12:50:00,40.2,37.8,29.79,ESE,112,4.9,4.9,91,0.04,,,0.20,VWS V14.01,2013-03-10 17:50:00,
2013-03-10 12:55:00,39.3,36.9,29.78,East,90,6.2,6.2,91,0.04,,,0.20,VWS V14.01,2013-03-10 17:55:00,
2013-03-10 13:00:00,39.5,37.1,29.78,ESE,112,6.9,6.9,91,0.06,,,0.22,VWS V14.01,2013-03-10 18:00:00,
2013-03-10 13:05:00,39.5,37.1,29.78,East,90,6.2,6.2,91,0.06,,,0.22,VWS V14.01,2013-03-10 18:05:00,
2013-03-10 13:10:00,39.9,37.5,29.78,East,90,6.7,6.7,91,0.06,,,0.22,VWS V14.01,2013-03-10 18:10:00,
2013-03-10 13:15:00,39.7,37.3,29.77,East,90,9.3,9.3,91,0.06,,,0.22,VWS V14.01,2013-03-10 18:15:00,
2013-03-10 13:20:00,39.5,37.1,29.77,East,90,6.9,6.9,91,0.08,,,0.24,VWS V14.01,2013-03-10 18:20:00,
2013-03-10 13:25:00,39.7,37.3,29.76,ENE,68,5.1,5.1,91,0.08,,,0.24,VWS V14.01,2013-03-10 18:25:00,
2013-03-10 13:30:00,39.3,36.9,29.76,East,90,8.5,8.5,91,0.06,,,0.24,VWS V14.01,2013-03-10 18:30:00,
2013-03-10 13:35:00,39.3,36.9,29.77,East,90,6.0,6.0,91,0.08,,,0.26,VWS V14.01,2013-03-10 18:35:00,
2013-03-10 13:40:00,39.0,36.6,29.77,ESE,112,6.9,6.9,91,0.08,,,0.26,VWS V14.01,2013-03-10 18:40:00,
2013-03-10 13:45:00,39.0,36.6,29.76,East,90,5.8,5.8,91,0.06,,,0.26,VWS V14.01,2013-03-10 18:45:00,
2013-03-10 13:50:00,39.3,36.9,29.76,East,90,6.9,6.9,91,0.06,,,0.26,VWS V14.01,2013-03-10 18:50:00,
2013-03-10 13:55:00,39.5,37.1,29.76,ENE,68,3.8,3.8,91,0.08,,,0.29,VWS V14.01,2013-03-10 18:55:00,
2013-03-10 14:00:00,39.7,37.3,29.76,NE,45,5.8,5.8,91,0.06,,,0.29,VWS V14.01,2013-03-10 19:00:00,
2013-03-10 14:05:00,39.7,37.3,29.75,NE,45,4.0,4.0,91,0.06,,,0.29,VWS V14.01,2013-03-10 19:05:00,
2013-03-10 14:10:00,39.3,36.9,29.76,ENE,68,4.2,4.2,91,0.08,,,0.31,VWS V14.01,2013-03-10 19:10:00,
2013-03-10 14:15:00,39.3,36.9,29.76,ENE,68,6.0,6.0,91,0.08,,,0.31,VWS V14.01,2013-03-10 19:15:00,
2013-03-10 14:20:00,39.3,36.9,29.76,ENE,68,7.1,7.1,91,0.08,,,0.33,VWS V14.01,2013-03-10 19:20:00,
2013-03-10 14:25:00,39.5,37.1,29.75,ENE,68,4.6,4.6,91,0.08,,,0.33,VWS V14.01,2013-03-10 19:25:00,
2013-03-10 14:30:00,39.0,36.6,29.74,NE,45,5.8,5.8,91,0.10,,,0.35,VWS V14.01,2013-03-10 19:30:00,
2013-03-10 14:35:00,38.8,36.4,29.72,NE,45,8.0,8.0,91,0.10,,,0.37,VWS V14.01,2013-03-10 19:35:00,
2013-03-10 14:40:00,38.8,36.4,29.72,NE,45,6.4,6.4,91,0.12,,,0.39,VWS V14.01,2013-03-10 19:40:00,
2013-03-10 14:45:00,38.8,36.4,29.74,NE,45,5.5,5.5,91,0.15,,,0.41,VWS V14.01,2013-03-10 19:45:00,
2013-03-10 14:50:00,38.8,36.4,29.75,NE,45,2.4,2.4,91,0.15,,,0.41,VWS V14.01,2013-03-10 19:50:00,
2013-03-10 14:55:00,38.8,36.4,29.75,NE,45,2.4,2.4,91,0.14,,,0.43,VWS V14.01,2013-03-10 19:55:00,
2013-03-10 15:00:00,38.4,36.0,29.74,NE,45,5.5,5.5,91,0.16,,,0.45,VWS V14.01,2013-03-10 20:00:00,
2013-03-10 15:05:00,38.3,35.9,29.74,NE,45,4.6,4.6,91,0.16,,,0.45,VWS V14.01,2013-03-10 20:05:00,
2013-03-10 15:10:00,38.1,35.7,29.75,NNE,22,1.1,1.1,91,0.14,,,0.45,VWS V14.01,2013-03-10 20:10:00,
2013-03-10 15:15:00,38.1,35.7,29.74,NE,45,3.1,3.1,91,0.14,,,0.45,VWS V14.01,2013-03-10 20:15:00,
2013-03-10 15:20:00,38.3,35.9,29.74,NNE,22,2.0,2.0,91,0.14,,,0.47,VWS V14.01,2013-03-10 20:20:00,
2013-03-10 15:25:00,38.1,35.7,29.73,NNE,22,6.0,6.0,91,0.14,,,0.47,VWS V14.01,2013-03-10 20:25:00,
2013-03-10 15:30:00,38.3,35.9,29.72,NE,45,4.9,4.9,91,0.12,,,0.47,VWS V14.01,2013-03-10 20:30:00,
2013-03-10 15:35:00,38.4,36.0,29.72,NE,45,7.1,7.1,91,0.12,,,0.49,VWS V14.01,2013-03-10 20:35:00,
2013-03-10 15:40:00,38.4,36.0,29.72,NNE,22,6.0,6.0,91,0.10,,,0.49,VWS V14.01,2013-03-10 20:40:00,
2013-03-10 15:45:00,38.3,35.9,29.73,NE,45,4.4,4.4,91,0.08,,,0.49,VWS V14.01,2013-03-10 20:45:00,
2013-03-10 15:50:00,38.4,36.0,29.73,NE,45,6.9,6.9,91,0.08,,,0.49,VWS V14.01,2013-03-10 20:50:00,
2013-03-10 15:55:00,38.8,36.4,29.73,NE,45,4.6,4.6,91,0.06,,,0.49,VWS V14.01,2013-03-10 20:55:00,
2013-03-10 16:00:00,38.8,36.4,29.73,NE,45,4.4,4.4,91,0.04,,,0.49,VWS V14.01,2013-03-10 21:00:00,
2013-03-10 16:05:00,38.8,36.4,29.72,NE,45,4.4,4.4,91,0.04,,,0.49,VWS V14.01,2013-03-10 21:05:00,
2013-03-10 16:10:00,38.6,36.2,29.72,NNE,22,4.9,4.9,91,0.04,,,0.49,VWS V14.01,2013-03-10 21:10:00,
2013-03-10 16:15:00,38.8,36.4,29.73,NNE,22,6.4,6.4,91,0.04,,,0.00,VWS V14.01,2013-03-10 21:15:00,
2013-03-10 16:20:00,39.0,36.6,29.73,NNE,22,4.9,4.9,91,0.04,,,0.51,VWS V14.01,2013-03-10 21:20:00,
2013-03-10 16:25:00,39.0,36.6,29.72,NNE,22,6.4,6.4,91,0.06,,,0.53,VWS V14.01,2013-03-10 21:25:00,
2013-03-10 16:30:00,39.0,36.6,29.70,NNE,22,7.8,7.8,91,0.06,,,0.53,VWS V14.01,2013-03-10 21:30:00,
2013-03-10 16:35:00,38.8,36.4,29.70,NNE,22,8.7,8.7,91,0.04,,,0.53,VWS V14.01,2013-03-10 21:35:00,
2013-03-10 16:40:00,38.3,35.9,29.70,NNE,22,8.2,8.2,91,0.04,,,0.53,VWS V14.01,2013-03-10 21:40:00,
2013-03-10 16:45:00,38.1,35.7,29.66,NNE,22,12.0,12.0,91,0.04,,,0.53,VWS V14.01,2013-03-10 21:45:00,
2013-03-10 16:50:00,38.1,35.7,29.66,NNE,22,12.3,12.3,91,0.04,,,0.53,VWS V14.01,2013-03-10 21:50:00,
2013-03-10 16:55:00,38.3,35.9,29.65,NNE,22,14.0,14.0,91,0.04,,,0.53,VWS V14.01,2013-03-10 21:55:00,
2013-03-10 17:00:00,38.3,35.9,29.67,NNE,22,14.0,14.0,91,0.04,,,0.53,VWS V14.01,2013-03-10 22:00:00,
2013-03-10 17:05:00,38.3,35.9,29.66,NNE,22,14.0,14.0,91,0.04,,,0.53,VWS V14.01,2013-03-10 22:05:00,
2013-03-10 17:10:00,38.3,35.9,29.68,NNE,22,14.0,14.0,91,0.04,,,0.53,VWS V14.01,2013-03-10 22:10:00,
2013-03-10 17:15:00,38.3,35.9,29.67,NNE,22,12.0,12.0,91,0.04,,,0.53,VWS V14.01,2013-03-10 22:15:00,
2013-03-10 17:20:00,38.3,35.9,29.67,NNE,22,12.0,12.0,91,0.02,,,0.53,VWS V14.01,2013-03-10 22:20:00,
2013-03-10 17:25:00,37.7,35.3,29.67,NNE,22,12.0,12.0,91,0.00,,,0.53,VWS V14.01,2013-03-10 22:25:00,
2013-03-10 17:30:00,37.5,35.1,29.68,ENE,68,10.2,10.2,91,0.00,,,0.53,VWS V14.01,2013-03-10 22:30:00,
2013-03-10 17:35:00,37.7,35.3,29.68,NE,45,7.8,7.8,91,0.00,,,0.53,VWS V14.01,2013-03-10 22:35:00,
2013-03-10 17:40:00,37.5,35.1,29.66,NE,45,10.9,10.9,91,0.00,,,0.53,VWS V14.01,2013-03-10 22:40:00,
2013-03-10 17:45:00,37.5,35.1,29.66,NNE,22,10.2,10.2,91,0.02,,,0.55,VWS V14.01,2013-03-10 22:45:00,
2013-03-10 17:50:00,37.4,35.0,29.67,NNE,22,8.5,8.5,91,0.02,,,0.55,VWS V14.01,2013-03-10 22:50:00,
2013-03-10 17:55:00,37.2,34.8,29.66,NNE,22,12.5,12.5,91,0.02,,,0.55,VWS V14.01,2013-03-10 22:55:00,
2013-03-10 18:00:00,37.2,34.8,29.66,NE,45,12.0,12.0,91,0.02,,,0.55,VWS V14.01,2013-03-10 23:00:00,
2013-03-10 18:05:00,37.2,34.8,29.66,NE,45,10.0,10.0,91,0.02,,,0.55,VWS V14.01,2013-03-10 23:05:00,
2013-03-10 18:10:00,37.4,35.0,29.66,NE,45,12.3,12.3,91,0.02,,,0.55,VWS V14.01,2013-03-10 23:10:00,
2013-03-10 18:15:00,37.4,35.0,29.66,NE,45,10.5,10.5,91,0.02,,,0.55,VWS V14.01,2013-03-10 23:15:00,
2013-03-10 18:20:00,37.5,35.1,29.66,NE,45,9.3,9.3,91,0.02,,,0.55,VWS V14.01,2013-03-10 23:20:00,
2013-03-10 18:25:00,37.4,35.0,29.67,ENE,68,7.3,7.3,91,0.02,,,0.55,VWS V14.01,2013-03-10 23:25:00,
2013-03-10 18:30:00,37.2,34.8,29.67,NE,45,6.4,6.4,91,0.02,,,0.55,VWS V14.01,2013-03-10 23:30:00,
2013-03-10 18:35:00,37.2,34.8,29.68,NE,45,4.6,4.6,91,0.02,,,0.55,VWS V14.01,2013-03-10 23:35:00,
2013-03-10 18:40:00,37.2,34.8,29.68,East,90,6.9,6.9,91,0.02,,,0.55,VWS V14.01,2013-03-10 23:40:00,
2013-03-10 18:45:00,37.2,34.8,29.69,ENE,68,5.5,5.5,91,0.00,,,0.55,VWS V14.01,2013-03-10 23:45:00,
2013-03-10 18:50:00,37.2,34.8,29.69,ENE,68,2.4,2.4,91,0.00,,,0.55,VWS V14.01,2013-03-10 23:50:00,
2013-03-10 18:55:00,37.2,34.8,29.69,NNE,22,0.0,0.0,91,0.00,,,0.55,VWS V14.01,2013-03-10 23:55:00,
2013-03-10 19:00:00,37.2,34.8,29.72,SSW,202,10.5,10.5,91,0.00,,,0.55,VWS V14.01,2013-03-11 00:00:00,
2013-03-10 19:05:00,37.0,34.6,29.72,NW,315,9.1,9.1,91,0.00,,,0.55,VWS V14.01,2013-03-11 00:05:00,
2013-03-10 19:10:00,36.6,34.2,29.72,SW,225,2.0,2.0,91,0.02,,,0.57,VWS V14.01,2013-03-11 00:10:00,
2013-03-10 19:15:00,36.6,34.2,29.71,West,270,2.4,2.4,91,0.02,,,0.57,VWS V14.01,2013-03-11 00:15:00,
2013-03-10 19:20:00,36.5,34.1,29.71,West,270,2.6,2.6,91,0.04,,,0.59,VWS V14.01,2013-03-11 00:20:00,
2013-03-10 19:25:00,36.5,34.1,29.71,NNW,338,5.1,5.1,91,0.06,,,0.61,VWS V14.01,2013-03-11 00:25:00,
2013-03-10 19:30:00,36.3,33.9,29.71,NNW,338,0.8,0.8,91,0.06,,,0.61,VWS V14.01,2013-03-11 00:30:00,
2013-03-10 19:35:00,36.3,33.9,29.71,NNW,338,0.0,0.0,91,0.06,,,0.61,VWS V14.01,2013-03-11 00:35:00,
2013-03-10 19:40:00,36.1,33.7,29.70,North,0,5.5,5.5,91,0.06,,,0.61,VWS V14.01,2013-03-11 00:40:00,
2013-03-10 19:45:00,36.3,33.9,29.70,North,0,4.0,4.0,91,0.06,,,0.61,VWS V14.01,2013-03-11 00:45:00,
2013-03-10 19:50:00,36.1,33.7,29.70,North,0,5.5,5.5,91,0.06,,,0.61,VWS V14.01,2013-03-11 00:50:00,
2013-03-10 19:55:00,35.9,33.5,29.70,NNW,338,4.9,4.9,91,0.06,,,0.61,VWS V14.01,2013-03-11 00:55:00,
2013-03-10 20:00:00,36.1,33.7,29.69,North,0,6.7,6.7,91,0.06,,,0.61,VWS V14.01,2013-03-11 01:00:00,
2013-03-10 20:05:00,36.1,33.7,29.70,North,0,4.9,4.9,91,0.06,,,0.61,VWS V14.01,2013-03-11 01:05:00,
2013-03-10 20:10:00,36.3,33.9,29.70,NNW,338,8.2,8.2,91,0.04,,,0.61,VWS V14.01,2013-03-11 01:10:00,
2013-03-10 20:15:00,36.3,33.9,29.69,North,0,4.0,4.0,91,0.04,,,0.61,VWS V14.01,2013-03-11 01:15:00,
2013-03-10 20:20:00,36.1,33.7,29.69,North,0,8.2,8.2,91,0.02,,,0.61,VWS V14.01,2013-03-11 01:20:00,
2013-03-10 20:25:00,36.1,33.7,29.69,NNW,338,3.5,3.5,91,0.00,,,0.61,VWS V14.01,2013-03-11 01:25:00,
2013-03-10 20:30:00,36.3,33.9,29.69,North,0,4.4,4.4,91,0.00,,,0.61,VWS V14.01,2013-03-11 01:30:00,
2013-03-10 20:35:00,36.3,33.9,29.70,North,0,3.8,3.8,91,0.00,,,0.61,VWS V14.01,2013-03-11 01:35:00,
2013-03-10 20:40:00,36.3,33.9,29.70,North,0,0.8,0.8,91,0.00,,,0.61,VWS V14.01,2013-03-11 01:40:00,
2013-03-10 20:45:00,36.3,33.9,29.69,North,0,6.7,6.7,91,0.00,,,0.61,VWS V14.01,2013-03-11 01:45:00,
2013-03-10 20:50:00,36.3,33.9,29.69,North,0,2.6,2.6,91,0.00,,,0.61,VWS V14.01,2013-03-11 01:50:00,
2013-03-10 20:55:00,35.9,33.5,29.69,North,0,2.4,2.4,91,0.00,,,0.61,VWS V14.01,2013-03-11 01:55:00,
2013-03-10 21:00:00,35.7,33.3,29.69,North,0,1.5,1.5,91,0.00,,,0.61,VWS V14.01,2013-03-11 02:00:00,
2013-03-10 21:05:00,35.7,33.3,29.69,North,0,4.4,4.4,91,0.00,,,0.61,VWS V14.01,2013-03-11 02:05:00,
2013-03-10 21:10:00,35.4,33.0,29.69,North,0,6.7,6.7,91,0.00,,,0.61,VWS V14.01,2013-03-11 02:10:00,
2013-03-10 21:15:00,35.4,33.0,29.69,North,0,4.2,4.2,91,0.00,,,0.61,VWS V14.01,2013-03-11 02:15:00,
2013-03-10 21:20:00,35.7,33.3,29.69,North,0,2.0,2.0,91,0.00,,,0.61,VWS V14.01,2013-03-11 02:20:00,
2013-03-10 21:25:00,35.4,33.0,29.69,North,0,1.5,1.5,91,0.00,,,0.61,VWS V14.01,2013-03-11 02:25:00,
2013-03-10 21:30:00,35.4,33.0,29.70,North,0,0.6,0.6,91,0.00,,,0.61,VWS V14.01,2013-03-11 02:30:00,
2013-03-10 21:35:00,35.4,33.0,29.70,North,0,0.0,0.0,91,0.00,,,0.61,VWS V14.01,2013-03-11 02:35:00,
2013-03-10 21:40:00,35.4,33.0,29.71,NNW,338,1.3,1.3,91,0.00,,,0.61,VWS V14.01,2013-03-11 02:40:00,
2013-03-10 21:45:00,35.4,33.0,29.71,WNW,292,2.0,2.0,91,0.00,,,0.61,VWS V14.01,2013-03-11 02:45:00,
2013-03-10 21:50:00,35.4,33.0,29.71,WNW,292,0.0,0.0,91,0.00,,,0.61,VWS V14.01,2013-03-11 02:50:00,
2013-03-10 21:55:00,35.2,32.8,29.71,WNW,292,2.0,2.0,91,0.00,,,0.61,VWS V14.01,2013-03-11 02:55:00,
2013-03-10 22:00:00,35.2,32.8,29.71,WNW,292,2.0,2.0,91,0.00,,,0.61,VWS V14.01,2013-03-11 03:00:00,
2013-03-10 22:05:00,35.2,32.8,29.71,WNW,292,2.0,2.0,91,0.00,,,0.61,VWS V14.01,2013-03-11 03:05:00,
2013-03-10 22:10:00,35.2,33.1,29.71,WNW,292,0.6,0.6,92,0.00,,,0.61,VWS V14.01,2013-03-11 03:10:00,
2013-03-10 22:15:00,35.2,33.1,29.71,WNW,292,1.1,1.1,92,0.00,,,0.61,VWS V14.01,2013-03-11 03:15:00,
2013-03-10 22:20:00,34.8,32.7,29.71,WNW,292,0.0,0.0,92,0.00,,,0.61,VWS V14.01,2013-03-11 03:20:00,
2013-03-10 22:25:00,34.8,32.7,29.71,WNW,292,1.1,1.1,92,0.00,,,0.61,VWS V14.01,2013-03-11 03:25:00,
2013-03-10 22:30:00,34.7,32.6,29.71,WNW,292,0.0,0.0,92,0.00,,,0.61,VWS V14.01,2013-03-11 03:30:00,
2013-03-10 22:35:00,34.7,32.6,29.71,WNW,292,0.0,0.0,92,0.00,,,0.61,VWS V14.01,2013-03-11 03:35:00,
2013-03-10 22:40:00,34.7,32.6,29.71,NW,315,2.2,2.2,92,0.00,,,0.61,VWS V14.01,2013-03-11 03:40:00,
2013-03-10 22:45:00,34.7,32.6,29.71,NW,315,0.0,0.0,92,0.00,,,0.61,VWS V14.01,2013-03-11 03:45:00,
2013-03-10 22:50:00,34.7,32.6,29.71,NW,315,0.0,0.0,92,0.00,,,0.61,VWS V14.01,2013-03-11 03:50:00,
2013-03-10 22:55:00,34.7,32.6,29.71,NW,315,0.0,0.0,92,0.00,,,0.61,VWS V14.01,2013-03-11 03:55:00,
2013-03-10 23:00:00,34.7,32.6,29.71,NW,315,0.0,0.0,92,0.00,,,0.61,VWS V14.01,2013-03-11 04:00:00,
2013-03-10 23:05:00,34.5,32.4,29.72,NW,315,0.0,0.0,92,0.00,,,0.61,VWS V14.01,2013-03-11 04:05:00,
2013-03-10 23:10:00,34.7,32.6,29.72,NW,315,0.0,0.0,92,0.00,,,0.61,VWS V14.01,2013-03-11 04:10:00,
2013-03-10 23:15:00,34.7,32.6,29.72,NW,315,0.0,0.0,92,0.00,,,0.61,VWS V14.01,2013-03-11 04:15:00,
2013-03-10 23:20:00,34.7,32.6,29.71,NW,315,0.0,0.0,92,0.00,,,0.61,VWS V14.01,2013-03-11 04:20:00,
2013-03-10 23:25:00,34.5,32.4,29.72,NW,315,0.0,0.0,92,0.00,,,0.61,VWS V14.01,2013-03-11 04:25:00,
2013-03-10 23:30:00,34.3,32.0,29.72,NW,315,2.4,2.4,91,0.00,,,0.61,VWS V14.01,2013-03-11 04:30:00,
2013-03-10 23:35:00,34.5,32.4,29.72,NW,315,0.0,0.0,92,0.00,,,0.61,VWS V14.01,2013-03-11 04:35:00,
2013-03-10 23:40:00,34.3,32.0,29.72,NW,315,0.0,0.0,91,0.00,,,0.61,VWS V14.01,2013-03-11 04:40:00,
2013-03-10 23:45:00,34.3,32.0,29.72,NW,315,0.0,0.0,91,0.00,,,0.61,VWS V14.01,2013-03-11 04:45:00,
2013-03-10 23:50:00,34.3,32.0,29.72,NW,315,2.2,2.2,91,0.00,,,0.61,VWS V14.01,2013-03-11 04:50:00,
2013-03-10 23:55:00,34.3,32.0,29.72,NW,315,1.5,1.5,91,0.00,,,0.61,VWS V14.01,2013-03-11 04:55:00,